Time;durP1;ratioP1;P1;durP2;ratioP2;P2;SDS_P1;SDS_P2;PMS_P1;PMS_P2;Temp;Humidity;BMP_temperature;BMP_pressure;BME280_temperature;BME280_humidity;BME280_pressure;Samples;Min_cycle;Max_cycle;Signal;HPM_P1;HPM_P2
2021/12/17 00:04:31;;;;;;;13.77;7.83;;;7.20;99.90;;;;;;5061221;28;20865;-83
2021/12/17 00:06:57;;;;;;;14.00;7.63;;;7.20;99.90;;;;;;5071231;28;20172;-79
2021/12/17 00:09:23;;;;;;;13.87;7.53;;;7.30;99.90;;;;;;5071345;28;20183;-78
2021/12/17 00:11:49;;;;;;;11.83;8.07;;;7.40;99.90;;;;;;5054430;28;20188;-78
2021/12/17 00:14:24;;;;;;;14.87;7.27;;;7.30;99.90;;;;;;5037209;28;20196;-78
2021/12/17 00:16:51;;;;;;;14.20;7.70;;;7.20;99.90;;;;;;5038601;28;20263;-82
2021/12/17 00:19:35;;;;;;;14.17;7.90;;;7.20;99.90;;;;;;5071096;28;20226;-82
2021/12/17 00:49:02;;;;;;;11.63;7.00;;;6.90;99.90;;;;;;5071088;28;20168;-82
2021/12/17 00:54:24;;;;;;;11.23;7.00;;;7.10;99.90;;;;;;5066893;28;20181;-83
2021/12/17 00:56:52;;;;;;;10.60;6.77;;;7.20;99.90;;;;;;5034972;28;20624;-79
2021/12/17 00:59:19;;;;;;;10.73;6.83;;;7.40;99.90;;;;;;5050128;28;20196;-83
2021/12/17 01:01:45;;;;;;;9.60;6.60;;;7.10;99.90;;;;;;5066439;28;20259;-79
2021/12/17 01:04:12;;;;;;;11.93;7.07;;;7.10;99.90;;;;;;5070590;28;20233;-78
2021/12/17 01:06:39;;;;;;;9.80;6.47;;;7.00;99.90;;;;;;5053481;28;20259;-78
2021/12/17 01:09:07;;;;;;;11.77;6.93;;;6.90;99.90;;;;;;5072116;28;20222;-78
2021/12/17 01:11:34;;;;;;;9.00;6.27;;;7.10;99.90;;;;;;5051360;28;20176;-78
2021/12/17 01:14:00;;;;;;;11.43;7.43;;;7.30;99.90;;;;;;5051717;28;20192;-79
2021/12/17 01:16:26;;;;;;;14.83;7.97;;;7.30;99.90;;;;;;5039110;28;20176;-78
2021/12/17 01:22:42;;;;;;;11.57;7.13;;;7.40;99.90;;;;;;5071301;28;20184;-78
2021/12/17 01:43:14;;;;;;;12.00;7.03;;;7.50;99.90;;;;;;5056898;28;20223;-78
2021/12/17 01:45:42;;;;;;;9.17;6.10;;;7.30;99.90;;;;;;5054158;28;20172;-81
2021/12/17 01:48:13;;;;;;;10.13;6.63;;;7.10;99.90;;;;;;5069722;28;20236;-78
2021/12/17 01:56:29;;;;;;;13.27;7.07;;;7.10;99.90;;;;;;5065785;28;20261;-79
2021/12/17 02:01:40;;;;;;;9.90;6.53;;;7.10;99.90;;;;;;5056326;28;20196;-79
2021/12/17 02:04:07;;;;;;;13.60;7.53;;;7.30;99.90;;;;;;5069556;28;20540;-79
2021/12/17 02:06:37;;;;;;;14.23;7.93;;;7.10;99.90;;;;;;5036900;28;20184;-78
2021/12/17 02:09:23;;;;;;;12.07;7.77;;;7.10;99.90;;;;;;5053431;28;20173;-79
2021/12/17 02:12:20;;;;;;;11.80;7.03;;;7.20;99.90;;;;;;5054105;28;20199;-78
2021/12/17 02:20:43;;;;;;;11.83;7.50;;;7.30;99.90;;;;;;5055307;28;20948;-82
2021/12/17 02:32:02;;;;;;;11.17;7.23;;;7.30;99.90;;;;;;5070063;28;20177;-82
2021/12/17 02:37:28;;;;;;;12.30;6.90;;;7.40;99.90;;;;;;5069517;28;20169;-78
2021/12/17 02:47:33;;;;;;;9.97;6.63;;;7.60;99.90;;;;;;5071183;28;20168;-82
2021/12/17 02:49:59;;;;;;;9.63;6.53;;;7.60;99.90;;;;;;5070025;28;20215;-82
2021/12/17 02:52:34;;;;;;;10.00;5.93;;;7.60;99.90;;;;;;5069507;28;20231;-79
2021/12/17 02:55:01;;;;;;;12.03;7.13;;;7.10;99.90;;;;;;5037477;28;20175;-82
2021/12/17 02:57:27;;;;;;;10.27;7.07;;;7.30;99.90;;;;;;5036670;28;20529;-82
2021/12/17 02:59:53;;;;;;;11.30;6.50;;;7.40;99.90;;;;;;5019163;28;20254;-79
2021/12/17 03:02:25;;;;;;;12.27;7.27;;;7.40;99.90;;;;;;5068855;28;20164;-82
2021/12/17 03:04:51;;;;;;;10.50;6.37;;;7.30;99.90;;;;;;5037306;28;20190;-79
2021/12/17 03:07:17;;;;;;;12.20;7.63;;;7.40;99.90;;;;;;5052748;28;20176;-79
2021/12/17 03:12:37;;;;;;;11.53;6.37;;;7.50;99.90;;;;;;5070922;28;20196;-82
2021/12/17 03:15:18;;;;;;;13.37;7.00;;;7.50;99.90;;;;;;5069279;28;20239;-79
2021/12/17 03:26:07;;;;;;;13.97;7.43;;;7.50;99.90;;;;;;5073136;28;20211;-82
2021/12/17 03:28:34;;;;;;;12.40;7.30;;;7.50;99.90;;;;;;5040474;28;20177;-82
2021/12/17 03:31:01;;;;;;;10.37;6.30;;;7.50;99.90;;;;;;5072755;28;20259;-78
2021/12/17 03:33:27;;;;;;;10.20;6.60;;;7.60;99.90;;;;;;5056720;28;20274;-82
2021/12/17 03:35:53;;;;;;;11.37;7.17;;;7.60;99.90;;;;;;5038566;28;20719;-82
2021/12/17 03:38:20;;;;;;;11.43;7.20;;;7.50;99.90;;;;;;5072718;28;20161;-78
2021/12/17 03:40:47;;;;;;;9.67;6.80;;;7.50;99.90;;;;;;5072437;28;20263;-78
2021/12/17 03:43:22;;;;;;;9.77;6.30;;;7.50;99.90;;;;;;5056099;28;20184;-78
2021/12/17 03:45:49;;;;;;;10.17;6.80;;;7.50;99.90;;;;;;5072827;28;20164;-82
2021/12/17 03:48:15;;;;;;;10.67;6.77;;;7.60;99.90;;;;;;5056148;28;20195;-81
2021/12/17 03:50:41;;;;;;;10.27;6.53;;;7.60;99.90;;;;;;5038830;28;20642;-81
2021/12/17 03:53:09;;;;;;;12.17;6.63;;;7.60;99.90;;;;;;5071512;28;20291;-82
2021/12/17 03:55:34;;;;;;;12.23;7.37;;;7.50;99.90;;;;;;5071879;28;20160;-83
2021/12/17 03:58:01;;;;;;;11.97;6.83;;;7.50;99.90;;;;;;5055937;28;20179;-83
2021/12/17 04:00:28;;;;;;;11.37;7.23;;;7.50;99.90;;;;;;5073026;28;20215;-78
2021/12/17 04:02:54;;;;;;;13.07;7.37;;;7.50;99.90;;;;;;5080480;28;20743;-78
2021/12/17 04:05:21;;;;;;;10.97;7.43;;;7.60;99.90;;;;;;5038538;28;20176;-78
2021/12/17 04:07:47;;;;;;;13.53;7.80;;;7.60;99.90;;;;;;5071665;28;20172;-82
2021/12/17 04:10:13;;;;;;;12.80;7.90;;;7.50;99.90;;;;;;5072009;28;20179;-78
2021/12/17 04:15:14;;;;;;;10.93;7.23;;;7.60;99.90;;;;;;5040604;28;20195;-78
2021/12/17 04:17:45;;;;;;;11.53;7.33;;;7.50;99.90;;;;;;5055501;28;20735;-82
2021/12/17 04:20:12;;;;;;;12.77;7.70;;;7.50;99.90;;;;;;5055959;28;20247;-82
2021/12/17 04:22:38;;;;;;;11.63;7.77;;;7.50;99.90;;;;;;5071924;28;20555;-79
2021/12/17 04:25:04;;;;;;;9.50;7.13;;;7.40;99.90;;;;;;5055770;28;20211;-80
2021/12/17 04:27:30;;;;;;;10.80;7.27;;;7.50;99.90;;;;;;5071795;28;20173;-83
2021/12/17 04:29:57;;;;;;;11.97;7.77;;;7.50;99.90;;;;;;5054560;28;20175;-82
2021/12/17 04:32:23;;;;;;;11.53;8.10;;;7.40;99.90;;;;;;5073059;28;20538;-82
2021/12/17 04:34:49;;;;;;;12.30;7.73;;;7.50;99.90;;;;;;5073081;28;20175;-82
2021/12/17 04:37:15;;;;;;;13.23;8.40;;;7.60;99.90;;;;;;5070827;28;20234;-79
2021/12/17 04:39:41;;;;;;;12.13;7.57;;;7.60;99.90;;;;;;5038145;28;20173;-83
2021/12/17 04:42:15;;;;;;;11.87;8.07;;;7.40;99.90;;;;;;5054849;28;20667;-82
2021/12/17 04:44:48;;;;;;;13.13;8.13;;;7.20;99.90;;;;;;5054367;28;20172;-79
2021/12/17 04:57:52;;;;;;;11.50;7.93;;;7.50;99.90;;;;;;5071093;28;20174;-82
2021/12/17 05:00:24;;;;;;;12.33;8.00;;;7.60;99.90;;;;;;5038475;28;20545;-79
2021/12/17 05:02:53;;;;;;;10.43;7.57;;;7.70;99.90;;;;;;5070578;28;20659;-81
2021/12/17 05:05:25;;;;;;;13.57;7.97;;;7.70;99.90;;;;;;5072220;28;20241;-79
2021/12/17 05:08:00;;;;;;;13.83;8.53;;;7.70;99.90;;;;;;5054304;28;20168;-79
2021/12/17 05:10:45;;;;;;;11.93;7.60;;;7.70;99.90;;;;;;5054504;28;20168;-80
2021/12/17 05:19:15;;;;;;;13.00;8.17;;;7.30;99.90;;;;;;4974198;28;20175;-81
2021/12/17 05:21:40;;;;;;;12.23;8.10;;;7.50;99.90;;;;;;4987000;28;20183;-81
2021/12/17 05:24:06;;;;;;;10.53;7.90;;;7.50;99.90;;;;;;5015726;28;20599;-78
2021/12/17 05:26:32;;;;;;;15.33;8.23;;;7.40;99.90;;;;;;5032999;28;20199;-78
2021/12/17 05:28:58;;;;;;;12.30;7.90;;;7.60;99.90;;;;;;5050165;28;20223;-82
2021/12/17 05:31:25;;;;;;;10.70;8.03;;;7.70;99.90;;;;;;5051963;28;20248;-80
2021/12/17 05:33:52;;;;;;;11.97;8.43;;;7.70;99.90;;;;;;5050102;28;20262;-84
2021/12/17 05:36:20;;;;;;;14.10;8.60;;;7.80;99.90;;;;;;5051434;28;20180;-82
2021/12/17 05:38:46;;;;;;;13.13;7.90;;;7.80;99.90;;;;;;5049507;28;20180;-79
2021/12/17 05:41:12;;;;;;;13.30;8.73;;;7.70;99.90;;;;;;5059509;28;20177;-80
2021/12/17 05:43:38;;;;;;;14.63;8.57;;;7.70;99.90;;;;;;5033914;28;20185;-82
2021/12/17 05:46:11;;;;;;;12.83;8.17;;;7.80;99.90;;;;;;5050053;28;20181;-82
2021/12/17 05:48:38;;;;;;;12.50;7.87;;;7.80;99.90;;;;;;5067186;28;20176;-79
2021/12/17 05:51:07;;;;;;;12.93;8.27;;;7.80;99.90;;;;;;5050908;28;20246;-81
2021/12/17 05:53:33;;;;;;;12.57;8.27;;;7.60;99.90;;;;;;5051779;28;20242;-79
2021/12/17 05:55:59;;;;;;;14.17;8.03;;;7.70;99.90;;;;;;5049926;28;20165;-80
2021/12/17 05:58:27;;;;;;;11.10;7.70;;;7.80;99.90;;;;;;5050346;28;20175;-84
2021/12/17 06:00:53;;;;;;;14.63;8.03;;;7.90;99.90;;;;;;5035411;28;20170;-78
2021/12/17 06:03:20;;;;;;;12.83;8.30;;;8.00;99.90;;;;;;5048361;28;20181;-83
2021/12/17 06:05:46;;;;;;;12.73;8.13;;;7.90;99.90;;;;;;5062961;28;20269;-76
2021/12/17 06:08:12;;;;;;;10.30;7.47;;;7.60;99.90;;;;;;5084006;28;20176;-86
2021/12/17 06:10:38;;;;;;;11.67;7.43;;;7.30;99.90;;;;;;5050170;28;20663;-85
2021/12/17 06:13:04;;;;;;;10.43;7.27;;;7.30;99.90;;;;;;5051926;28;20196;-79
2021/12/17 06:15:30;;;;;;;12.23;8.00;;;7.50;99.90;;;;;;5070353;28;20200;-88
2021/12/17 06:17:57;;;;;;;11.93;7.97;;;7.70;99.90;;;;;;5058511;28;20185;-78
2021/12/17 06:20:24;;;;;;;14.27;8.47;;;7.80;99.90;;;;;;5068830;28;20184;-77
2021/12/17 06:22:51;;;;;;;11.27;7.77;;;7.80;99.90;;;;;;5068171;28;20175;-78
2021/12/17 06:25:17;;;;;;;13.20;8.70;;;7.90;99.90;;;;;;5035564;28;20176;-76
2021/12/17 06:27:44;;;;;;;12.60;8.20;;;8.00;99.90;;;;;;5069632;28;20205;-77
2021/12/17 06:30:15;;;;;;;12.57;8.37;;;7.90;99.90;;;;;;5053386;28;20172;-84
2021/12/17 06:32:41;;;;;;;13.77;8.27;;;7.90;99.90;;;;;;5054177;28;20204;-76
2021/12/17 06:35:08;;;;;;;11.87;7.97;;;7.90;99.90;;;;;;5069967;28;20640;-86
2021/12/17 06:37:34;;;;;;;11.63;7.60;;;7.90;99.90;;;;;;5086325;28;20656;-85
2021/12/17 06:40:02;;;;;;;13.43;8.87;;;7.90;99.90;;;;;;5052835;28;20196;-80
2021/12/17 06:42:28;;;;;;;11.40;7.60;;;8.00;99.90;;;;;;5070488;28;20210;-78
2021/12/17 06:44:57;;;;;;;9.87;7.00;;;8.00;99.90;;;;;;5070332;28;20205;-79
2021/12/17 06:47:30;;;;;;;10.30;7.17;;;8.00;99.90;;;;;;5039652;28;20860;-88
2021/12/17 06:54:38;;;;;;;13.10;8.43;;;7.90;99.90;;;;;;5070974;28;20193;-79
2021/12/17 07:01:00;;;;;;;11.23;7.20;;;8.00;99.90;;;;;;5075111;28;20268;-88
2021/12/17 07:17:13;;;;;;;10.20;6.60;;;8.00;99.90;;;;;;5059315;28;20259;-85
2021/12/17 07:22:44;;;;;;;8.70;5.63;;;8.10;99.90;;;;;;5060449;28;20555;-78
2021/12/17 07:40:58;;;;;;;11.70;6.87;;;8.10;99.90;;;;;;5058201;28;20577;-83
2021/12/17 07:43:40;;;;;;;9.00;6.10;;;8.10;99.90;;;;;;5055314;28;20173;-81
2021/12/17 07:46:11;;;;;;;10.50;6.03;;;8.10;99.90;;;;;;5071480;28;20553;-81
2021/12/17 07:48:39;;;;;;;11.50;5.77;;;8.10;99.90;;;;;;5071768;28;20283;-81
2021/12/17 07:51:08;;;;;;;7.93;5.47;;;8.20;99.90;;;;;;5054554;28;20180;-81
2021/12/17 07:53:34;;;;;;;8.67;5.53;;;8.20;99.90;;;;;;5071807;28;20212;-81
2021/12/17 07:56:02;;;;;;;8.90;5.90;;;8.10;99.90;;;;;;5055120;28;20165;-82
2021/12/17 07:58:29;;;;;;;8.30;5.20;;;8.10;99.90;;;;;;5054940;28;20172;-82
2021/12/17 08:00:56;;;;;;;8.17;5.23;;;8.10;99.90;;;;;;5072994;28;20181;-80
2021/12/17 08:03:24;;;;;;;8.97;5.63;;;8.10;99.90;;;;;;5062523;28;20317;-81
2021/12/17 08:05:52;;;;;;;11.20;5.47;;;8.20;99.90;;;;;;5040450;28;20191;-82
2021/12/17 08:08:18;;;;;;;10.03;5.83;;;8.40;99.90;;;;;;5055110;28;20266;-81
2021/12/17 08:10:47;;;;;;;8.97;5.40;;;8.30;99.90;;;;;;5055058;28;20401;-82
2021/12/17 08:13:27;;;;;;;7.40;4.90;;;8.30;99.90;;;;;;5055829;28;20208;-79
2021/12/17 08:26:39;;;;;;;7.43;4.83;;;8.20;99.90;;;;;;5043554;28;20655;-82
2021/12/17 08:31:53;;;;;;;6.70;4.63;;;8.00;99.90;;;;;;5071582;28;20642;-82
2021/12/17 08:34:19;;;;;;;5.67;3.80;;;8.10;99.90;;;;;;5039934;28;20216;-81
2021/12/17 08:36:45;;;;;;;5.07;3.73;;;8.10;99.90;;;;;;5038276;28;20542;-82
2021/12/17 08:39:12;;;;;;;5.23;3.90;;;7.90;99.90;;;;;;5072079;28;20241;-81
2021/12/17 08:41:41;;;;;;;5.57;3.50;;;7.70;99.90;;;;;;5055357;28;20199;-81
2021/12/17 08:44:08;;;;;;;4.27;3.50;;;7.80;99.90;;;;;;5056048;28;20268;-81
2021/12/17 08:46:35;;;;;;;6.00;3.90;;;7.80;99.90;;;;;;5042656;28;20172;-80
2021/12/17 08:49:04;;;;;;;5.30;3.77;;;7.90;99.90;;;;;;5038856;28;20233;-81
2021/12/17 08:51:31;;;;;;;6.27;4.43;;;8.00;99.90;;;;;;5054449;28;20176;-80
2021/12/17 08:53:57;;;;;;;5.80;3.40;;;8.10;99.90;;;;;;5055003;28;20282;-80
2021/12/17 08:56:27;;;;;;;5.47;3.97;;;8.10;99.90;;;;;;5054649;28;20180;-80
2021/12/17 08:58:53;;;;;;;6.03;4.20;;;8.10;99.90;;;;;;5055210;28;20169;-81
2021/12/17 09:01:20;;;;;;;6.63;3.97;;;8.10;99.90;;;;;;5038237;28;20172;-81
2021/12/17 09:03:47;;;;;;;5.10;3.57;;;8.20;99.90;;;;;;5054657;28;20173;-81
2021/12/17 09:06:17;;;;;;;5.67;3.53;;;8.10;99.90;;;;;;5038242;28;20507;-81
2021/12/17 09:08:43;;;;;;;5.33;3.70;;;8.10;99.90;;;;;;5072053;28;20176;-80
2021/12/17 09:11:09;;;;;;;5.67;4.13;;;8.10;99.90;;;;;;5054688;28;20184;-81
2021/12/17 09:13:36;;;;;;;5.33;3.90;;;8.10;99.90;;;;;;5037869;28;20200;-82
2021/12/17 09:16:06;;;;;;;7.77;4.30;;;8.10;99.90;;;;;;5057217;28;20654;-81
2021/12/17 09:18:33;;;;;;;5.90;4.40;;;8.00;99.90;;;;;;5055083;28;20172;-81
2021/12/17 09:20:59;;;;;;;4.70;3.60;;;7.90;99.90;;;;;;5070782;28;20175;-80
2021/12/17 09:23:27;;;;;;;5.13;3.77;;;8.00;99.90;;;;;;5071167;28;20706;-82
2021/12/17 09:25:53;;;;;;;5.27;3.90;;;8.00;99.90;;;;;;5053771;28;20547;-81
2021/12/17 09:28:19;;;;;;;6.87;4.43;;;7.80;99.90;;;;;;5054383;28;20177;-80
2021/12/17 09:30:45;;;;;;;4.80;3.57;;;7.90;99.90;;;;;;5070882;28;20176;-80
2021/12/17 09:33:10;;;;;;;4.70;3.60;;;8.00;99.90;;;;;;5037696;28;20204;-81
2021/12/17 09:35:36;;;;;;;4.37;3.37;;;7.90;99.90;;;;;;5037526;28;20594;-81
2021/12/17 09:38:02;;;;;;;4.17;3.20;;;8.00;99.90;;;;;;5071280;28;20247;-81
2021/12/17 09:40:28;;;;;;;4.77;3.80;;;8.00;99.90;;;;;;5053800;28;20181;-83
2021/12/17 09:42:54;;;;;;;3.80;3.23;;;8.00;99.90;;;;;;5070846;28;20830;-81
2021/12/17 09:45:20;;;;;;;3.40;2.87;;;8.00;99.90;;;;;;5071243;28;20569;-80
2021/12/17 09:47:47;;;;;;;5.30;3.60;;;8.00;99.90;;;;;;5071047;28;20550;-80
2021/12/17 09:50:17;;;;;;;4.87;3.30;;;8.10;99.90;;;;;;5054251;28;20204;-81
2021/12/17 09:52:43;;;;;;;4.83;3.60;;;8.30;99.90;;;;;;5053706;28;20215;-82
2021/12/17 09:55:09;;;;;;;4.60;3.43;;;8.30;99.90;;;;;;5072061;28;20175;-81
2021/12/17 09:57:37;;;;;;;5.83;3.67;;;8.40;99.90;;;;;;5036679;28;20536;-81
2021/12/17 10:00:17;;;;;;;4.57;3.53;;;8.40;99.90;;;;;;5053566;28;20177;-80
2021/12/17 10:02:44;;;;;;;5.23;3.90;;;8.40;99.90;;;;;;5052953;28;20230;-79
2021/12/17 10:05:20;;;;;;;6.30;3.73;;;8.40;99.90;;;;;;5036492;28;20207;-82
2021/12/17 10:07:53;;;;;;;5.07;3.50;;;8.30;99.90;;;;;;5037141;28;20172;-78
2021/12/17 10:10:19;;;;;;;4.80;3.57;;;8.50;99.90;;;;;;5053370;28;20237;-82
2021/12/17 10:12:46;;;;;;;5.27;3.93;;;8.40;99.90;;;;;;5036424;28;20624;-82
2021/12/17 10:15:15;;;;;;;4.53;3.60;;;8.50;99.90;;;;;;5036711;28;20826;-80
2021/12/17 10:18:01;;;;;;;5.10;3.47;;;8.50;99.90;;;;;;5053230;28;20173;-81
2021/12/17 10:20:30;;;;;;;3.93;3.33;;;8.60;99.90;;;;;;5077703;28;20214;-79
2021/12/17 10:23:08;;;;;;;4.47;3.67;;;8.40;99.90;;;;;;5037675;28;20263;-81
2021/12/17 10:25:37;;;;;;;4.83;3.70;;;8.60;99.90;;;;;;5071280;28;20264;-80
2021/12/17 10:28:06;;;;;;;4.47;3.40;;;8.60;99.90;;;;;;5057221;28;20217;-81
2021/12/17 10:30:35;;;;;;;5.00;3.57;;;8.70;99.90;;;;;;5074094;28;20183;-81
2021/12/17 10:33:04;;;;;;;4.10;3.50;;;8.80;99.90;;;;;;5040410;28;20204;-81
2021/12/17 10:35:32;;;;;;;5.47;4.00;;;8.80;99.90;;;;;;5040441;28;20173;-80
2021/12/17 10:38:03;;;;;;;6.03;3.70;;;8.80;99.90;;;;;;5057094;28;20173;-81
2021/12/17 10:40:47;;;;;;;4.93;3.63;;;8.80;99.90;;;;;;5073831;28;20717;-80
2021/12/17 10:43:33;;;;;;;7.70;4.07;;;8.80;99.90;;;;;;5073775;28;20169;-80
2021/12/17 10:54:17;;;;;;;5.83;4.43;;;8.80;99.90;;;;;;5042735;28;20646;-80
2021/12/17 10:56:45;;;;;;;6.40;4.33;;;8.90;99.90;;;;;;5056980;28;20184;-78
2021/12/17 10:59:18;;;;;;;6.83;5.10;;;9.00;99.90;;;;;;5056594;28;20674;-82
2021/12/17 11:01:47;;;;;;;6.90;4.80;;;8.80;99.90;;;;;;5056784;28;20314;-81
2021/12/17 11:04:51;;;;;;;6.37;4.77;;;8.90;99.90;;;;;;5073013;28;20172;-78
2021/12/17 11:07:19;;;;;;;6.53;4.57;;;8.90;99.90;;;;;;5015419;28;20181;-79
2021/12/17 11:10:00;;;;;;;7.53;4.33;;;9.00;99.90;;;;;;5065916;28;20203;-79
2021/12/17 11:12:31;;;;;;;6.33;4.53;;;9.00;99.90;;;;;;5072637;28;20197;-80
2021/12/17 11:15:24;;;;;;;6.07;3.80;;;9.10;99.90;;;;;;5072777;28;20675;-80
2021/12/17 11:17:53;;;;;;;5.77;4.07;;;9.20;99.90;;;;;;5073398;28;20258;-81
2021/12/17 11:20:21;;;;;;;6.33;4.53;;;9.10;99.90;;;;;;5072837;28;20168;-81
2021/12/17 11:22:50;;;;;;;6.87;4.57;;;9.00;99.90;;;;;;5073215;28;20164;-80
2021/12/17 11:25:17;;;;;;;7.07;4.57;;;9.10;99.90;;;;;;5057253;28;20177;-81
2021/12/17 11:27:43;;;;;;;6.63;4.33;;;9.10;99.90;;;;;;5056648;28;20714;-79
2021/12/17 11:30:15;;;;;;;7.30;5.13;;;9.20;99.90;;;;;;5056602;28;20187;-82
2021/12/17 11:32:43;;;;;;;5.47;3.97;;;9.20;99.90;;;;;;5072334;28;20200;-80
2021/12/17 11:35:10;;;;;;;6.97;4.80;;;9.20;99.90;;;;;;5056038;28;20175;-80
2021/12/17 11:37:37;;;;;;;8.13;4.97;;;9.20;99.90;;;;;;5055247;28;20169;-79
2021/12/17 11:40:11;;;;;;;5.90;4.63;;;9.30;99.90;;;;;;5039607;28;20219;-79
2021/12/17 11:43:04;;;;;;;8.23;5.27;;;9.20;99.90;;;;;;5055775;28;20669;-80
2021/12/17 11:45:30;;;;;;;8.10;4.93;;;9.20;99.90;;;;;;5072297;28;20180;-80
2021/12/17 11:48:19;;;;;;;8.00;4.90;;;9.30;99.90;;;;;;5038720;28;20188;-80
2021/12/17 11:50:47;;;;;;;7.83;4.23;;;9.20;99.90;;;;;;5058018;28;20537;-80
2021/12/17 11:53:23;;;;;;;6.40;5.20;;;9.20;99.90;;;;;;5071877;28;20204;-80
2021/12/17 11:55:58;;;;;;;6.73;4.90;;;9.40;99.90;;;;;;5039196;28;20172;-81
2021/12/17 11:58:56;;;;;;;6.77;4.67;;;9.50;99.90;;;;;;5038763;28;20589;-81
2021/12/17 12:01:48;;;;;;;5.27;4.17;;;9.60;99.90;;;;;;5049981;28;20184;-79
2021/12/17 12:04:39;;;;;;;6.27;4.40;;;9.70;99.90;;;;;;5071977;28;20183;-80
2021/12/17 12:07:26;;;;;;;8.53;5.10;;;9.60;99.90;;;;;;5073434;28;20247;-81
2021/12/17 12:09:58;;;;;;;7.17;4.67;;;9.60;99.90;;;;;;5057912;28;20260;-77
2021/12/17 12:12:24;;;;;;;6.07;4.90;;;9.70;99.90;;;;;;5072268;28;20169;-80
2021/12/17 12:14:50;;;;;;;6.33;4.53;;;9.80;99.90;;;;;;5072623;28;20188;-79
2021/12/17 12:17:57;;;;;;;5.77;4.13;;;9.70;99.90;;;;;;5061956;28;20169;-79
2021/12/17 12:20:48;;;;;;;5.57;4.17;;;9.90;99.90;;;;;;5078991;28;20173;-80
2021/12/17 12:23:17;;;;;;;5.67;3.87;;;10.00;99.90;;;;;;5076463;28;20169;-79
2021/12/17 12:25:45;;;;;;;5.70;4.33;;;9.90;99.90;;;;;;5056644;28;20211;-81
2021/12/17 12:28:14;;;;;;;6.37;3.83;;;9.90;99.90;;;;;;5056350;28;20191;-80
2021/12/17 12:30:43;;;;;;;5.37;4.20;;;9.90;99.90;;;;;;5072126;28;20180;-80
2021/12/17 12:33:10;;;;;;;5.63;4.07;;;9.80;99.90;;;;;;5055026;28;20670;-81
2021/12/17 12:35:37;;;;;;;6.77;4.37;;;9.90;99.90;;;;;;5054343;28;20169;-80
2021/12/17 12:38:22;;;;;;;6.20;4.20;;;10.10;99.90;;;;;;5055950;28;20173;-83
2021/12/17 12:40:54;;;;;;;5.83;3.90;;;10.10;99.90;;;;;;5040189;28;20168;-80
2021/12/17 12:43:29;;;;;;;8.10;3.80;;;10.30;99.90;;;;;;5071659;28;20183;-81
2021/12/17 12:45:55;;;;;;;5.87;4.00;;;10.30;99.90;;;;;;5071039;28;20175;-80
2021/12/17 12:48:33;;;;;;;5.83;4.00;;;10.30;99.90;;;;;;5070934;28;20193;-82
2021/12/17 12:51:21;;;;;;;5.63;3.97;;;10.40;99.90;;;;;;5066773;28;20176;-80
2021/12/17 12:54:06;;;;;;;5.83;4.20;;;10.40;99.90;;;;;;5071308;28;20196;-80
2021/12/17 12:56:38;;;;;;;4.83;3.73;;;10.40;99.90;;;;;;5054743;28;20218;-81
2021/12/17 12:59:06;;;;;;;4.87;3.37;;;10.50;99.90;;;;;;5054602;28;20896;-80
2021/12/17 13:01:32;;;;;;;5.37;3.63;;;10.50;99.90;;;;;;5054187;28;20176;-81
2021/12/17 13:03:58;;;;;;;6.50;3.80;;;10.60;99.90;;;;;;5054040;28;20623;-81
2021/12/17 13:06:25;;;;;;;4.80;3.60;;;10.60;99.90;;;;;;5060626;28;20169;-81
2021/12/17 13:08:53;;;;;;;4.20;3.50;;;10.70;99.90;;;;;;5055640;28;20189;-80
2021/12/17 13:11:24;;;;;;;6.07;3.67;;;10.80;99.90;;;;;;5054412;28;20317;-79
2021/12/17 13:13:56;;;;;;;5.83;4.27;;;10.80;99.90;;;;;;5037041;28;20215;-80
2021/12/17 13:21:45;;;;;;;6.13;4.40;;;10.70;99.90;;;;;;5050114;28;20200;-80
2021/12/17 13:24:16;;;;;;;5.80;4.30;;;10.60;99.90;;;;;;5049812;28;20288;-80
2021/12/17 13:26:52;;;;;;;6.53;4.47;;;10.60;99.90;;;;;;5049924;28;20655;-81
2021/12/17 13:29:39;;;;;;;5.87;4.30;;;10.40;99.90;;;;;;5050372;28;20180;-79
2021/12/17 13:32:09;;;;;;;6.27;4.13;;;10.20;99.90;;;;;;5049829;28;20565;-79
2021/12/17 13:34:51;;;;;;;6.10;4.23;;;10.00;99.90;;;;;;5049588;28;20218;-80
2021/12/17 13:37:25;;;;;;;6.10;4.53;;;10.00;99.90;;;;;;5033048;28;20665;-80
2021/12/17 13:39:58;;;;;;;8.07;4.63;;;9.90;99.90;;;;;;5052107;28;20173;-80
2021/12/17 13:42:27;;;;;;;5.77;4.20;;;9.90;99.90;;;;;;5053558;28;20718;-80
2021/12/17 13:44:55;;;;;;;6.77;4.90;;;9.80;99.90;;;;;;5053546;28;20213;-79
2021/12/17 13:47:29;;;;;;;7.13;4.53;;;9.90;99.90;;;;;;5053250;28;20547;-78
2021/12/17 13:50:20;;;;;;;6.67;4.80;;;9.80;99.90;;;;;;5053771;28;20177;-81
2021/12/17 13:52:59;;;;;;;6.37;4.17;;;9.90;99.90;;;;;;5052418;28;20631;-82
2021/12/17 13:55:32;;;;;;;5.63;4.00;;;9.90;99.90;;;;;;5053109;28;20534;-80
2021/12/17 13:58:00;;;;;;;6.67;4.33;;;9.90;99.90;;;;;;5066753;28;20220;-81
2021/12/17 14:00:31;;;;;;;5.67;4.40;;;9.90;99.90;;;;;;5051761;28;20616;-80
2021/12/17 14:02:58;;;;;;;6.30;4.30;;;9.90;99.90;;;;;;5052826;28;20176;-80
2021/12/17 14:05:29;;;;;;;7.10;5.07;;;10.00;99.90;;;;;;5052127;28;20195;-80
2021/12/17 14:07:58;;;;;;;8.57;4.47;;;10.00;99.90;;;;;;5036215;28;20547;-80
2021/12/17 14:10:31;;;;;;;6.30;4.57;;;10.10;99.90;;;;;;5052813;28;20180;-79
2021/12/17 14:12:57;;;;;;;5.77;4.10;;;10.10;99.90;;;;;;5049830;28;20227;-80
2021/12/17 14:15:28;;;;;;;5.33;3.77;;;10.10;99.90;;;;;;5048887;28;21063;-80
2021/12/17 14:17:59;;;;;;;5.83;4.40;;;9.90;99.90;;;;;;5033534;28;20295;-79
2021/12/17 14:20:36;;;;;;;7.07;4.60;;;9.90;99.90;;;;;;5062477;28;20713;-80
2021/12/17 14:23:17;;;;;;;6.77;4.50;;;9.90;99.90;;;;;;5069243;28;20191;-79
2021/12/17 14:25:58;;;;;;;8.23;4.67;;;9.90;99.90;;;;;;5019728;28;20172;-81
2021/12/17 14:28:26;;;;;;;6.43;4.60;;;9.90;99.90;;;;;;5069734;28;20541;-79
2021/12/17 14:31:10;;;;;;;7.87;5.10;;;9.90;99.90;;;;;;5052755;28;20169;-80
2021/12/17 14:34:01;;;;;;;7.17;4.93;;;9.90;99.90;;;;;;5069368;28;20275;-80
2021/12/17 14:36:37;;;;;;;5.60;4.70;;;9.80;99.90;;;;;;5069328;28;20233;-80
2021/12/17 14:39:09;;;;;;;6.47;4.87;;;9.80;99.90;;;;;;5022856;28;20183;-79
2021/12/17 14:41:49;;;;;;;6.47;4.77;;;9.70;99.90;;;;;;5053156;28;20203;-81
2021/12/17 15:03:02;;;;;;;6.83;4.80;;;9.30;99.90;;;;;;5081126;28;20177;-80
2021/12/17 15:05:30;;;;;;;8.10;5.23;;;9.20;99.90;;;;;;5063932;28;20172;-82
2021/12/17 15:07:58;;;;;;;7.53;5.50;;;9.20;99.90;;;;;;5051748;28;20593;-81
2021/12/17 15:10:26;;;;;;;9.90;5.50;;;9.20;99.90;;;;;;5052140;28;20181;-84
2021/12/17 15:12:56;;;;;;;10.33;5.67;;;9.20;99.90;;;;;;5053995;28;20469;-82
2021/12/17 15:15:24;;;;;;;9.40;6.47;;;9.20;99.90;;;;;;5089361;28;20193;-83
2021/12/17 15:17:53;;;;;;;8.77;5.77;;;9.30;99.90;;;;;;5090204;28;20545;-81
2021/12/17 15:20:26;;;;;;;7.77;5.93;;;9.20;99.90;;;;;;5056005;28;20282;-81
2021/12/17 15:22:52;;;;;;;9.43;6.27;;;9.30;99.90;;;;;;5056310;28;20208;-81
2021/12/17 15:25:19;;;;;;;8.13;5.50;;;9.40;99.90;;;;;;5074641;28;20212;-82
2021/12/17 15:27:46;;;;;;;8.27;5.90;;;9.30;99.90;;;;;;5069980;28;20181;-82
2021/12/17 15:30:15;;;;;;;10.20;6.50;;;9.30;99.90;;;;;;5056278;28;20187;-82
2021/12/17 15:32:42;;;;;;;9.27;6.40;;;9.20;99.90;;;;;;5064028;28;20691;-81
2021/12/17 15:35:11;;;;;;;9.17;6.33;;;9.20;99.90;;;;;;5039041;28;20647;-83
2021/12/17 15:37:37;;;;;;;9.03;6.10;;;9.20;99.90;;;;;;5071814;28;20183;-81
2021/12/17 15:40:05;;;;;;;8.63;6.33;;;9.10;99.90;;;;;;5072118;28;20175;-81
2021/12/17 15:42:31;;;;;;;7.73;5.60;;;9.10;99.90;;;;;;5038599;28;20694;-83
2021/12/17 15:44:57;;;;;;;8.10;5.93;;;9.10;99.90;;;;;;5055108;28;20420;-83
2021/12/17 15:47:23;;;;;;;10.27;6.60;;;9.10;99.90;;;;;;5072534;28;20184;-82
2021/12/17 15:49:49;;;;;;;8.17;5.83;;;9.00;99.90;;;;;;5088270;28;20177;-82
2021/12/17 15:52:15;;;;;;;8.80;5.73;;;9.00;99.90;;;;;;5038629;28;20196;-82
2021/12/17 15:54:41;;;;;;;8.60;5.80;;;8.90;99.90;;;;;;5036205;28;20207;-81
2021/12/17 15:57:08;;;;;;;8.33;6.07;;;9.00;99.90;;;;;;5055435;28;20184;-82
2021/12/17 15:59:34;;;;;;;8.07;6.33;;;9.00;99.90;;;;;;5039989;28;20184;-82
2021/12/17 16:02:02;;;;;;;7.33;5.20;;;9.00;99.90;;;;;;5072245;28;20184;-82
2021/12/17 16:04:31;;;;;;;8.53;6.20;;;8.80;99.90;;;;;;5055639;28;20204;-83
2021/12/17 16:06:59;;;;;;;10.13;5.67;;;8.90;99.90;;;;;;5087979;28;20184;-81
2021/12/17 16:12:04;;;;;;;9.27;6.53;;;9.00;99.90;;;;;;5055835;28;20669;-81
2021/12/17 16:22:48;;;;;;;8.13;6.17;;;8.90;99.90;;;;;;5057344;28;20188;-82
2021/12/17 16:25:14;;;;;;;8.23;6.10;;;8.90;99.90;;;;;;5057418;28;20233;-83
2021/12/17 16:27:40;;;;;;;7.40;5.60;;;8.80;99.90;;;;;;5071908;28;20180;-82
2021/12/17 16:30:08;;;;;;;8.63;5.83;;;8.80;99.90;;;;;;5037400;28;20659;-84
2021/12/17 16:32:34;;;;;;;7.70;5.67;;;8.70;99.90;;;;;;5054350;28;20275;-82
2021/12/17 16:35:00;;;;;;;7.77;5.77;;;8.70;99.90;;;;;;5074111;28;20187;-84
2021/12/17 16:37:26;;;;;;;7.73;5.43;;;8.70;99.90;;;;;;5039420;28;20188;-83
2021/12/17 16:39:52;;;;;;;8.90;5.67;;;8.90;99.90;;;;;;5057328;28;20203;-86
2021/12/17 16:42:18;;;;;;;8.80;6.00;;;8.80;99.90;;;;;;5056499;28;20258;-83
2021/12/17 16:45:33;;;;;;;8.40;5.50;;;8.80;99.90;;;;;;5072646;28;20184;-84